Terminal Aerodrome Forecast
Issued by NWS Riverton, WY

Home | Current Version | Previous Version | Text Only | Print | Product List | Glossary On
Versions: 1 2 3 4 5 6 7 8 9 10 11 12
000
FTUS45 KRIW 212300
TAFRIW
TAF
KRIW 212324Z 2200/2224 23007KT P6SM SCT200
     FM220800 21008KT P6SM SCT150 BKN200 WS020/26030KT
     FM221400 VRB05KT P6SM SCT070 BKN100
     FM221900 VRB06KT P6SM VCSH SCT040 BKN050=

USA.gov is the U.S. government's official web portal to all federal, state and local government web resources and services.